sensor_id;sensor_type;location;lat;lon;timestamp;temperature;humidity
81218;DHT22;70689;52.494;13.420;2023-07-20T00:01:58;20.00;57.90
81218;DHT22;70689;52.494;13.420;2023-07-20T00:04:23;20.00;57.20
81218;DHT22;70689;52.494;13.420;2023-07-20T00:06:49;19.90;57.80
81218;DHT22;70689;52.494;13.420;2023-07-20T00:09:15;19.90;58.00
81218;DHT22;70689;52.494;13.420;2023-07-20T00:11:48;20.10;57.60
81218;DHT22;70689;52.494;13.420;2023-07-20T00:14:16;20.10;57.10
81218;DHT22;70689;52.494;13.420;2023-07-20T00:16:42;20.10;57.20
81218;DHT22;70689;52.494;13.420;2023-07-20T00:19:07;20.10;57.40
81218;DHT22;70689;52.494;13.420;2023-07-20T00:21:33;20.00;57.10
81218;DHT22;70689;52.494;13.420;2023-07-20T00:23:59;20.00;57.30
81218;DHT22;70689;52.494;13.420;2023-07-20T00:26:25;20.00;57.50
81218;DHT22;70689;52.494;13.420;2023-07-20T00:28:50;20.00;57.70
81218;DHT22;70689;52.494;13.420;2023-07-20T00:31:19;19.90;57.80
81218;DHT22;70689;52.494;13.420;2023-07-20T00:33:45;19.90;57.80
81218;DHT22;70689;52.494;13.420;2023-07-20T00:36:10;19.80;58.20
81218;DHT22;70689;52.494;13.420;2023-07-20T00:38:36;19.90;57.80
81218;DHT22;70689;52.494;13.420;2023-07-20T00:41:02;19.90;57.90
81218;DHT22;70689;52.494;13.420;2023-07-20T00:43:28;19.90;57.70
81218;DHT22;70689;52.494;13.420;2023-07-20T00:45:53;19.80;58.20
81218;DHT22;70689;52.494;13.420;2023-07-20T00:48:19;19.70;58.10
81218;DHT22;70689;52.494;13.420;2023-07-20T00:50:46;19.70;59.00
81218;DHT22;70689;52.494;13.420;2023-07-20T00:53:12;19.50;58.80
81218;DHT22;70689;52.494;13.420;2023-07-20T00:55:37;19.50;59.10
81218;DHT22;70689;52.494;13.420;2023-07-20T00:58:04;19.60;59.00
81218;DHT22;70689;52.494;13.420;2023-07-20T01:00:30;19.60;58.90
81218;DHT22;70689;52.494;13.420;2023-07-20T01:02:56;19.60;58.90
81218;DHT22;70689;52.494;13.420;2023-07-20T01:05:24;19.70;58.60
81218;DHT22;70689;52.494;13.420;2023-07-20T01:08:01;19.60;58.60
81218;DHT22;70689;52.494;13.420;2023-07-20T01:11:28;19.60;59.10
81218;DHT22;70689;52.494;13.420;2023-07-20T01:13:57;19.60;58.80
81218;DHT22;70689;52.494;13.420;2023-07-20T01:16:23;19.60;58.90
81218;DHT22;70689;52.494;13.420;2023-07-20T01:18:49;19.50;59.30
81218;DHT22;70689;52.494;13.420;2023-07-20T01:21:23;19.50;59.30
81218;DHT22;70689;52.494;13.420;2023-07-20T01:27:00;19.50;58.80
81218;DHT22;70689;52.494;13.420;2023-07-20T01:32:10;19.50;60.10
81218;DHT22;70689;52.494;13.420;2023-07-20T01:34:39;19.30;59.00
81218;DHT22;70689;52.494;13.420;2023-07-20T01:37:05;19.30;59.70
81218;DHT22;70689;52.494;13.420;2023-07-20T01:39:32;19.20;59.90
81218;DHT22;70689;52.494;13.420;2023-07-20T01:41:58;19.30;59.80
81218;DHT22;70689;52.494;13.420;2023-07-20T01:44:24;19.20;59.50
81218;DHT22;70689;52.494;13.420;2023-07-20T01:46:50;19.20;59.70
81218;DHT22;70689;52.494;13.420;2023-07-20T01:49:16;19.20;59.40
81218;DHT22;70689;52.494;13.420;2023-07-20T01:51:41;19.20;59.50
81218;DHT22;70689;52.494;13.420;2023-07-20T01:54:07;19.30;59.60
81218;DHT22;70689;52.494;13.420;2023-07-20T01:56:33;19.30;59.40
81218;DHT22;70689;52.494;13.420;2023-07-20T01:58:59;19.30;59.30
81218;DHT22;70689;52.494;13.420;2023-07-20T02:01:24;19.30;59.40
81218;DHT22;70689;52.494;13.420;2023-07-20T02:03:50;19.30;59.90
81218;DHT22;70689;52.494;13.420;2023-07-20T02:06:16;19.30;59.30
81218;DHT22;70689;52.494;13.420;2023-07-20T02:08:41;19.40;59.00
81218;DHT22;70689;52.494;13.420;2023-07-20T02:11:07;19.50;58.70
81218;DHT22;70689;52.494;13.420;2023-07-20T02:13:35;19.60;58.30
81218;DHT22;70689;52.494;13.420;2023-07-20T02:16:01;19.60;57.90
81218;DHT22;70689;52.494;13.420;2023-07-20T02:18:27;19.50;57.70
81218;DHT22;70689;52.494;13.420;2023-07-20T02:20:53;19.50;59.10
81218;DHT22;70689;52.494;13.420;2023-07-20T02:23:19;19.50;57.70
81218;DHT22;70689;52.494;13.420;2023-07-20T02:25:45;19.40;58.00
81218;DHT22;70689;52.494;13.420;2023-07-20T02:28:13;19.40;58.20
81218;DHT22;70689;52.494;13.420;2023-07-20T02:30:39;19.20;58.40
81218;DHT22;70689;52.494;13.420;2023-07-20T02:33:05;19.40;58.50
81218;DHT22;70689;52.494;13.420;2023-07-20T02:35:32;19.40;58.40
81218;DHT22;70689;52.494;13.420;2023-07-20T02:37:58;19.50;57.70
81218;DHT22;70689;52.494;13.420;2023-07-20T02:40:23;19.50;57.70
81218;DHT22;70689;52.494;13.420;2023-07-20T02:42:49;19.40;57.80
81218;DHT22;70689;52.494;13.420;2023-07-20T02:45:15;19.40;58.10
81218;DHT22;70689;52.494;13.420;2023-07-20T02:47:40;19.30;58.30
81218;DHT22;70689;52.494;13.420;2023-07-20T02:50:08;19.30;58.50
81218;DHT22;70689;52.494;13.420;2023-07-20T02:52:33;19.40;59.20
81218;DHT22;70689;52.494;13.420;2023-07-20T02:54:59;19.40;58.20
81218;DHT22;70689;52.494;13.420;2023-07-20T02:57:25;19.30;57.90
81218;DHT22;70689;52.494;13.420;2023-07-20T02:59:51;19.30;57.90
81218;DHT22;70689;52.494;13.420;2023-07-20T03:02:16;19.10;58.10
81218;DHT22;70689;52.494;13.420;2023-07-20T03:04:42;19.20;58.10
81218;DHT22;70689;52.494;13.420;2023-07-20T03:07:08;19.10;58.60
81218;DHT22;70689;52.494;13.420;2023-07-20T03:09:33;19.20;58.60
81218;DHT22;70689;52.494;13.420;2023-07-20T03:11:59;19.40;57.00
81218;DHT22;70689;52.494;13.420;2023-07-20T03:14:25;19.30;57.50
81218;DHT22;70689;52.494;13.420;2023-07-20T03:16:50;19.20;57.50
81218;DHT22;70689;52.494;13.420;2023-07-20T03:19:16;19.10;57.50
81218;DHT22;70689;52.494;13.420;2023-07-20T03:21:41;19.00;57.90
81218;DHT22;70689;52.494;13.420;2023-07-20T03:24:08;19.00;58.20
81218;DHT22;70689;52.494;13.420;2023-07-20T03:26:34;19.00;58.30
81218;DHT22;70689;52.494;13.420;2023-07-20T03:29:00;19.00;58.80
81218;DHT22;70689;52.494;13.420;2023-07-20T03:31:26;19.10;58.40
81218;DHT22;70689;52.494;13.420;2023-07-20T03:33:52;19.10;58.20
81218;DHT22;70689;52.494;13.420;2023-07-20T03:36:17;19.10;58.60
81218;DHT22;70689;52.494;13.420;2023-07-20T03:38:43;19.10;58.00
81218;DHT22;70689;52.494;13.420;2023-07-20T03:41:09;19.00;58.40
81218;DHT22;70689;52.494;13.420;2023-07-20T03:43:34;19.00;58.20
81218;DHT22;70689;52.494;13.420;2023-07-20T03:46:00;19.20;58.30
81218;DHT22;70689;52.494;13.420;2023-07-20T03:48:26;19.20;57.70
81218;DHT22;70689;52.494;13.420;2023-07-20T03:50:53;19.30;57.80
81218;DHT22;70689;52.494;13.420;2023-07-20T03:53:19;19.40;58.30
81218;DHT22;70689;52.494;13.420;2023-07-20T03:55:46;19.40;57.30
81218;DHT22;70689;52.494;13.420;2023-07-20T03:58:13;19.40;57.20
81218;DHT22;70689;52.494;13.420;2023-07-20T04:00:39;19.30;57.60
81218;DHT22;70689;52.494;13.420;2023-07-20T04:03:05;19.30;57.60
81218;DHT22;70689;52.494;13.420;2023-07-20T04:05:31;19.40;57.90
81218;DHT22;70689;52.494;13.420;2023-07-20T04:07:56;19.50;56.20
81218;DHT22;70689;52.494;13.420;2023-07-20T04:10:22;19.40;56.80
81218;DHT22;70689;52.494;13.420;2023-07-20T04:12:48;19.50;56.80
81218;DHT22;70689;52.494;13.420;2023-07-20T04:15:14;19.50;56.00
81218;DHT22;70689;52.494;13.420;2023-07-20T04:17:40;19.30;56.90
81218;DHT22;70689;52.494;13.420;2023-07-20T04:20:07;19.30;57.50
81218;DHT22;70689;52.494;13.420;2023-07-20T04:22:33;19.30;57.10
81218;DHT22;70689;52.494;13.420;2023-07-20T04:24:58;19.20;57.20
81218;DHT22;70689;52.494;13.420;2023-07-20T04:27:24;19.10;57.90
81218;DHT22;70689;52.494;13.420;2023-07-20T04:29:50;19.20;57.80
81218;DHT22;70689;52.494;13.420;2023-07-20T04:32:15;19.20;57.20
81218;DHT22;70689;52.494;13.420;2023-07-20T04:34:42;18.90;57.60
81218;DHT22;70689;52.494;13.420;2023-07-20T04:37:07;19.00;57.90
81218;DHT22;70689;52.494;13.420;2023-07-20T04:39:33;19.00;58.20
81218;DHT22;70689;52.494;13.420;2023-07-20T04:41:59;19.00;57.60
81218;DHT22;70689;52.494;13.420;2023-07-20T04:44:25;18.90;58.40
81218;DHT22;70689;52.494;13.420;2023-07-20T04:46:51;18.80;58.70
81218;DHT22;70689;52.494;13.420;2023-07-20T04:49:16;18.90;58.20
81218;DHT22;70689;52.494;13.420;2023-07-20T04:51:42;19.00;58.00
81218;DHT22;70689;52.494;13.420;2023-07-20T04:54:08;19.10;57.70
81218;DHT22;70689;52.494;13.420;2023-07-20T04:56:33;19.10;57.20
81218;DHT22;70689;52.494;13.420;2023-07-20T04:58:59;19.20;57.20
81218;DHT22;70689;52.494;13.420;2023-07-20T05:01:25;19.20;56.80
81218;DHT22;70689;52.494;13.420;2023-07-20T05:03:52;19.20;57.00
81218;DHT22;70689;52.494;13.420;2023-07-20T05:06:18;19.30;56.70
81218;DHT22;70689;52.494;13.420;2023-07-20T05:08:44;19.40;56.40
81218;DHT22;70689;52.494;13.420;2023-07-20T05:11:10;19.60;55.40
81218;DHT22;70689;52.494;13.420;2023-07-20T05:13:36;19.50;55.30
81218;DHT22;70689;52.494;13.420;2023-07-20T05:16:02;19.50;55.80
81218;DHT22;70689;52.494;13.420;2023-07-20T05:18:28;19.60;55.10
81218;DHT22;70689;52.494;13.420;2023-07-20T05:20:53;19.60;54.40
81218;DHT22;70689;52.494;13.420;2023-07-20T05:23:21;19.60;54.80
81218;DHT22;70689;52.494;13.420;2023-07-20T05:25:47;19.50;55.20
81218;DHT22;70689;52.494;13.420;2023-07-20T05:28:12;19.50;55.00
81218;DHT22;70689;52.494;13.420;2023-07-20T05:30:39;19.70;54.30
81218;DHT22;70689;52.494;13.420;2023-07-20T05:33:05;19.70;53.90
81218;DHT22;70689;52.494;13.420;2023-07-20T05:35:31;19.70;53.80
81218;DHT22;70689;52.494;13.420;2023-07-20T05:37:56;19.80;53.20
81218;DHT22;70689;52.494;13.420;2023-07-20T05:40:22;20.00;52.30
81218;DHT22;70689;52.494;13.420;2023-07-20T05:42:48;19.80;52.80
81218;DHT22;70689;52.494;13.420;2023-07-20T05:45:17;19.80;53.00
81218;DHT22;70689;52.494;13.420;2023-07-20T05:47:44;19.70;54.60
81218;DHT22;70689;52.494;13.420;2023-07-20T05:50:10;19.60;54.00
81218;DHT22;70689;52.494;13.420;2023-07-20T05:52:36;19.70;53.60
81218;DHT22;70689;52.494;13.420;2023-07-20T05:55:04;19.80;53.80
81218;DHT22;70689;52.494;13.420;2023-07-20T05:57:30;19.90;53.30
81218;DHT22;70689;52.494;13.420;2023-07-20T05:59:56;20.10;52.60
81218;DHT22;70689;52.494;13.420;2023-07-20T06:02:22;20.20;51.90
81218;DHT22;70689;52.494;13.420;2023-07-20T06:04:48;20.20;51.40
81218;DHT22;70689;52.494;13.420;2023-07-20T06:07:13;20.30;51.60
81218;DHT22;70689;52.494;13.420;2023-07-20T06:09:39;20.40;50.90
81218;DHT22;70689;52.494;13.420;2023-07-20T06:12:05;20.30;51.20
81218;DHT22;70689;52.494;13.420;2023-07-20T06:14:31;20.30;50.80
81218;DHT22;70689;52.494;13.420;2023-07-20T06:16:57;20.30;50.90
81218;DHT22;70689;52.494;13.420;2023-07-20T06:19:22;20.30;51.30
81218;DHT22;70689;52.494;13.420;2023-07-20T06:21:48;20.20;51.90
81218;DHT22;70689;52.494;13.420;2023-07-20T06:24:16;20.20;51.90
81218;DHT22;70689;52.494;13.420;2023-07-20T06:26:41;20.40;51.40
81218;DHT22;70689;52.494;13.420;2023-07-20T06:29:07;20.10;52.10
81218;DHT22;70689;52.494;13.420;2023-07-20T06:31:35;20.00;52.40
81218;DHT22;70689;52.494;13.420;2023-07-20T06:34:01;19.70;52.80
81218;DHT22;70689;52.494;13.420;2023-07-20T06:36:27;19.70;53.00
81218;DHT22;70689;52.494;13.420;2023-07-20T06:38:53;19.90;52.70
81218;DHT22;70689;52.494;13.420;2023-07-20T06:41:19;19.90;51.90
81218;DHT22;70689;52.494;13.420;2023-07-20T06:43:45;20.20;50.80
81218;DHT22;70689;52.494;13.420;2023-07-20T06:46:11;20.20;50.50
81218;DHT22;70689;52.494;13.420;2023-07-20T06:48:36;20.00;50.60
81218;DHT22;70689;52.494;13.420;2023-07-20T06:51:02;20.00;50.60
81218;DHT22;70689;52.494;13.420;2023-07-20T06:53:28;19.90;50.30
81218;DHT22;70689;52.494;13.420;2023-07-20T06:55:54;20.20;50.00
81218;DHT22;70689;52.494;13.420;2023-07-20T06:58:25;20.40;49.50
81218;DHT22;70689;52.494;13.420;2023-07-20T07:00:51;20.50;48.90
81218;DHT22;70689;52.494;13.420;2023-07-20T07:03:17;20.20;48.00
81218;DHT22;70689;52.494;13.420;2023-07-20T07:05:43;20.20;48.60
81218;DHT22;70689;52.494;13.420;2023-07-20T07:08:10;20.20;47.80
81218;DHT22;70689;52.494;13.420;2023-07-20T07:10:37;20.20;48.00
81218;DHT22;70689;52.494;13.420;2023-07-20T07:13:03;20.50;47.90
81218;DHT22;70689;52.494;13.420;2023-07-20T07:15:29;20.60;46.00
81218;DHT22;70689;52.494;13.420;2023-07-20T07:17:55;20.70;45.70
81218;DHT22;70689;52.494;13.420;2023-07-20T07:20:21;20.70;45.80
81218;DHT22;70689;52.494;13.420;2023-07-20T07:22:50;21.50;44.10
81218;DHT22;70689;52.494;13.420;2023-07-20T07:25:17;22.70;40.00
81218;DHT22;70689;52.494;13.420;2023-07-20T07:27:43;24.20;36.50
81218;DHT22;70689;52.494;13.420;2023-07-20T07:30:09;25.50;32.90
81218;DHT22;70689;52.494;13.420;2023-07-20T07:32:35;26.50;29.50
81218;DHT22;70689;52.494;13.420;2023-07-20T07:35:01;26.60;29.70
81218;DHT22;70689;52.494;13.420;2023-07-20T07:37:26;27.20;28.40
81218;DHT22;70689;52.494;13.420;2023-07-20T07:39:52;27.50;26.90
81218;DHT22;70689;52.494;13.420;2023-07-20T07:42:18;27.50;26.40
81218;DHT22;70689;52.494;13.420;2023-07-20T07:44:44;27.10;26.70
81218;DHT22;70689;52.494;13.420;2023-07-20T07:47:10;26.90;27.30
81218;DHT22;70689;52.494;13.420;2023-07-20T07:49:36;26.40;28.80
81218;DHT22;70689;52.494;13.420;2023-07-20T07:52:02;26.30;29.30
81218;DHT22;70689;52.494;13.420;2023-07-20T07:54:28;27.20;28.30
81218;DHT22;70689;52.494;13.420;2023-07-20T07:56:54;28.40;26.20
81218;DHT22;70689;52.494;13.420;2023-07-20T07:59:20;28.40;25.90
81218;DHT22;70689;52.494;13.420;2023-07-20T08:01:45;27.40;27.30
81218;DHT22;70689;52.494;13.420;2023-07-20T08:04:11;26.30;28.80
81218;DHT22;70689;52.494;13.420;2023-07-20T08:06:37;26.00;29.70
81218;DHT22;70689;52.494;13.420;2023-07-20T08:09:02;25.80;28.50
81218;DHT22;70689;52.494;13.420;2023-07-20T08:11:28;25.60;28.90
81218;DHT22;70689;52.494;13.420;2023-07-20T08:13:56;25.40;28.90
81218;DHT22;70689;52.494;13.420;2023-07-20T08:16:22;25.30;29.00
81218;DHT22;70689;52.494;13.420;2023-07-20T08:18:47;25.10;29.40
81218;DHT22;70689;52.494;13.420;2023-07-20T08:21:13;24.90;30.10
81218;DHT22;70689;52.494;13.420;2023-07-20T08:23:39;24.80;30.40
81218;DHT22;70689;52.494;13.420;2023-07-20T08:26:04;24.60;30.70
81218;DHT22;70689;52.494;13.420;2023-07-20T08:28:30;24.10;31.20
81218;DHT22;70689;52.494;13.420;2023-07-20T08:30:56;23.70;33.10
81218;DHT22;70689;52.494;13.420;2023-07-20T08:33:22;23.40;33.90
81218;DHT22;70689;52.494;13.420;2023-07-20T08:35:49;23.20;35.10
81218;DHT22;70689;52.494;13.420;2023-07-20T08:38:14;23.10;35.10
81218;DHT22;70689;52.494;13.420;2023-07-20T08:40:42;23.40;34.90
81218;DHT22;70689;52.494;13.420;2023-07-20T08:43:11;23.30;34.70
81218;DHT22;70689;52.494;13.420;2023-07-20T08:45:39;23.50;34.90
81218;DHT22;70689;52.494;13.420;2023-07-20T08:48:06;23.40;35.10
81218;DHT22;70689;52.494;13.420;2023-07-20T08:50:33;23.10;34.90
81218;DHT22;70689;52.494;13.420;2023-07-20T08:53:00;23.00;35.00
81218;DHT22;70689;52.494;13.420;2023-07-20T08:55:27;22.90;34.80
81218;DHT22;70689;52.494;13.420;2023-07-20T08:57:58;22.80;36.60
81218;DHT22;70689;52.494;13.420;2023-07-20T09:00:25;23.10;35.10
81218;DHT22;70689;52.494;13.420;2023-07-20T09:02:53;23.20;34.20
81218;DHT22;70689;52.494;13.420;2023-07-20T09:05:23;23.30;33.90
81218;DHT22;70689;52.494;13.420;2023-07-20T09:07:51;23.30;34.20
81218;DHT22;70689;52.494;13.420;2023-07-20T09:10:16;23.50;34.00
81218;DHT22;70689;52.494;13.420;2023-07-20T09:12:43;23.60;33.50
81218;DHT22;70689;52.494;13.420;2023-07-20T09:15:10;23.80;33.10
81218;DHT22;70689;52.494;13.420;2023-07-20T09:17:37;23.70;31.80
81218;DHT22;70689;52.494;13.420;2023-07-20T09:20:06;23.50;32.80
81218;DHT22;70689;52.494;13.420;2023-07-20T09:22:36;23.50;32.90
81218;DHT22;70689;52.494;13.420;2023-07-20T09:25:06;23.20;33.00
81218;DHT22;70689;52.494;13.420;2023-07-20T09:27:40;23.60;32.90
81218;DHT22;70689;52.494;13.420;2023-07-20T09:30:07;24.10;32.30
81218;DHT22;70689;52.494;13.420;2023-07-20T09:32:54;24.00;31.70
81218;DHT22;70689;52.494;13.420;2023-07-20T09:35:21;24.20;31.80
81218;DHT22;70689;52.494;13.420;2023-07-20T09:40:16;23.70;32.00
81218;DHT22;70689;52.494;13.420;2023-07-20T09:42:43;23.50;32.30
81218;DHT22;70689;52.494;13.420;2023-07-20T09:45:09;23.30;32.60
81218;DHT22;70689;52.494;13.420;2023-07-20T09:47:36;23.50;32.80
81218;DHT22;70689;52.494;13.420;2023-07-20T09:50:03;23.30;33.00
81218;DHT22;70689;52.494;13.420;2023-07-20T09:52:30;23.20;33.50
81218;DHT22;70689;52.494;13.420;2023-07-20T09:54:56;22.90;34.00
81218;DHT22;70689;52.494;13.420;2023-07-20T09:57:23;22.80;34.30
81218;DHT22;70689;52.494;13.420;2023-07-20T09:59:49;22.70;34.90
81218;DHT22;70689;52.494;13.420;2023-07-20T10:02:25;22.40;35.30
81218;DHT22;70689;52.494;13.420;2023-07-20T10:04:56;22.30;36.80
81218;DHT22;70689;52.494;13.420;2023-07-20T10:07:27;22.10;36.70
81218;DHT22;70689;52.494;13.420;2023-07-20T10:09:53;22.00;38.60
81218;DHT22;70689;52.494;13.420;2023-07-20T10:12:22;22.00;37.60
81218;DHT22;70689;52.494;13.420;2023-07-20T10:15:10;22.00;37.50
81218;DHT22;70689;52.494;13.420;2023-07-20T10:20:30;22.10;37.10
81218;DHT22;70689;52.494;13.420;2023-07-20T10:22:57;22.00;37.80
81218;DHT22;70689;52.494;13.420;2023-07-20T10:25:23;22.50;37.80
81218;DHT22;70689;52.494;13.420;2023-07-20T10:27:50;23.10;35.80
81218;DHT22;70689;52.494;13.420;2023-07-20T10:30:17;23.40;34.80
81218;DHT22;70689;52.494;13.420;2023-07-20T10:32:47;23.50;34.60
81218;DHT22;70689;52.494;13.420;2023-07-20T10:35:15;23.50;34.80
81218;DHT22;70689;52.494;13.420;2023-07-20T10:37:50;23.30;35.60
81218;DHT22;70689;52.494;13.420;2023-07-20T10:40:30;22.90;35.50
81218;DHT22;70689;52.494;13.420;2023-07-20T10:43:19;22.40;35.50
81218;DHT22;70689;52.494;13.420;2023-07-20T10:45:52;22.10;37.30
81218;DHT22;70689;52.494;13.420;2023-07-20T10:48:24;22.20;36.80
81218;DHT22;70689;52.494;13.420;2023-07-20T10:51:10;22.40;36.80
81218;DHT22;70689;52.494;13.420;2023-07-20T10:53:36;22.40;38.10
81218;DHT22;70689;52.494;13.420;2023-07-20T10:56:13;22.30;39.40
81218;DHT22;70689;52.494;13.420;2023-07-20T10:58:40;22.00;39.30
81218;DHT22;70689;52.494;13.420;2023-07-20T11:01:07;21.60;41.50
81218;DHT22;70689;52.494;13.420;2023-07-20T11:03:35;21.30;41.10
81218;DHT22;70689;52.494;13.420;2023-07-20T11:09:06;21.20;41.70
81218;DHT22;70689;52.494;13.420;2023-07-20T11:11:42;21.10;41.50
81218;DHT22;70689;52.494;13.420;2023-07-20T11:14:10;21.10;41.60
81218;DHT22;70689;52.494;13.420;2023-07-20T11:16:46;21.10;41.30
81218;DHT22;70689;52.494;13.420;2023-07-20T11:21:46;21.50;40.10
81218;DHT22;70689;52.494;13.420;2023-07-20T11:24:12;21.50;39.60
81218;DHT22;70689;52.494;13.420;2023-07-20T11:26:49;21.30;40.30
81218;DHT22;70689;52.494;13.420;2023-07-20T11:29:17;21.50;40.50
81218;DHT22;70689;52.494;13.420;2023-07-20T11:31:44;21.40;40.20
81218;DHT22;70689;52.494;13.420;2023-07-20T11:34:11;21.30;40.90
81218;DHT22;70689;52.494;13.420;2023-07-20T11:36:40;21.30;41.10
81218;DHT22;70689;52.494;13.420;2023-07-20T11:39:10;21.80;39.70
81218;DHT22;70689;52.494;13.420;2023-07-20T11:41:36;22.60;37.70
81218;DHT22;70689;52.494;13.420;2023-07-20T11:44:04;22.90;36.50
81218;DHT22;70689;52.494;13.420;2023-07-20T11:46:32;23.30;36.00
81218;DHT22;70689;52.494;13.420;2023-07-20T11:49:01;25.60;29.80
81218;DHT22;70689;52.494;13.420;2023-07-20T11:51:28;27.50;26.20
81218;DHT22;70689;52.494;13.420;2023-07-20T11:53:55;28.30;24.90
81218;DHT22;70689;52.494;13.420;2023-07-20T11:56:22;28.40;24.50
81218;DHT22;70689;52.494;13.420;2023-07-20T11:58:48;27.90;25.40
81218;DHT22;70689;52.494;13.420;2023-07-20T12:01:14;28.20;25.30
81218;DHT22;70689;52.494;13.420;2023-07-20T12:03:41;28.10;24.50
81218;DHT22;70689;52.494;13.420;2023-07-20T12:06:10;27.10;25.40
81218;DHT22;70689;52.494;13.420;2023-07-20T12:08:41;26.00;27.30
81218;DHT22;70689;52.494;13.420;2023-07-20T12:11:10;25.20;28.80
81218;DHT22;70689;52.494;13.420;2023-07-20T12:13:44;24.90;29.50
81218;DHT22;70689;52.494;13.420;2023-07-20T12:16:14;24.70;30.10
81218;DHT22;70689;52.494;13.420;2023-07-20T12:18:43;24.50;30.90
81218;DHT22;70689;52.494;13.420;2023-07-20T12:21:09;24.20;31.50
81218;DHT22;70689;52.494;13.420;2023-07-20T12:23:39;23.90;32.80
81218;DHT22;70689;52.494;13.420;2023-07-20T12:26:09;23.60;33.60
81218;DHT22;70689;52.494;13.420;2023-07-20T12:28:41;23.50;33.80
81218;DHT22;70689;52.494;13.420;2023-07-20T12:31:10;23.40;33.30
81218;DHT22;70689;52.494;13.420;2023-07-20T12:33:39;23.30;33.40
81218;DHT22;70689;52.494;13.420;2023-07-20T12:36:05;23.40;33.20
81218;DHT22;70689;52.494;13.420;2023-07-20T12:38:30;23.30;32.80
81218;DHT22;70689;52.494;13.420;2023-07-20T12:40:57;23.20;33.10
81218;DHT22;70689;52.494;13.420;2023-07-20T12:43:24;23.30;33.00
81218;DHT22;70689;52.494;13.420;2023-07-20T12:45:49;23.30;31.40
81218;DHT22;70689;52.494;13.420;2023-07-20T12:48:15;23.10;30.40
81218;DHT22;70689;52.494;13.420;2023-07-20T12:50:41;23.40;31.00
81218;DHT22;70689;52.494;13.420;2023-07-20T12:53:07;24.10;30.00
81218;DHT22;70689;52.494;13.420;2023-07-20T12:57:59;24.40;29.10
81218;DHT22;70689;52.494;13.420;2023-07-20T13:00:24;25.20;28.20
81218;DHT22;70689;52.494;13.420;2023-07-20T13:02:51;25.30;27.20
81218;DHT22;70689;52.494;13.420;2023-07-20T13:05:17;24.90;26.70
81218;DHT22;70689;52.494;13.420;2023-07-20T13:07:43;24.70;27.60
81218;DHT22;70689;52.494;13.420;2023-07-20T13:10:10;24.90;25.00
81218;DHT22;70689;52.494;13.420;2023-07-20T13:12:37;25.80;24.00
81218;DHT22;70689;52.494;13.420;2023-07-20T13:15:04;26.70;22.00
81218;DHT22;70689;52.494;13.420;2023-07-20T13:17:36;27.70;21.40
81218;DHT22;70689;52.494;13.420;2023-07-20T13:20:03;27.70;19.80
81218;DHT22;70689;52.494;13.420;2023-07-20T13:22:32;27.40;20.30
81218;DHT22;70689;52.494;13.420;2023-07-20T13:24:58;26.60;21.00
81218;DHT22;70689;52.494;13.420;2023-07-20T13:27:24;26.10;21.70
81218;DHT22;70689;52.494;13.420;2023-07-20T13:29:51;26.30;22.20
81218;DHT22;70689;52.494;13.420;2023-07-20T13:32:17;26.40;21.90
81218;DHT22;70689;52.494;13.420;2023-07-20T13:34:46;26.40;21.80
81218;DHT22;70689;52.494;13.420;2023-07-20T13:37:12;26.20;20.40
81218;DHT22;70689;52.494;13.420;2023-07-20T13:39:38;25.90;21.70
81218;DHT22;70689;52.494;13.420;2023-07-20T13:42:04;25.50;22.20
81218;DHT22;70689;52.494;13.420;2023-07-20T13:44:33;25.60;22.10
81218;DHT22;70689;52.494;13.420;2023-07-20T13:47:01;25.50;22.00
81218;DHT22;70689;52.494;13.420;2023-07-20T13:49:27;25.70;22.30
81218;DHT22;70689;52.494;13.420;2023-07-20T13:51:53;25.90;21.70
81218;DHT22;70689;52.494;13.420;2023-07-20T13:54:18;26.30;21.30
81218;DHT22;70689;52.494;13.420;2023-07-20T13:56:44;26.80;21.00
81218;DHT22;70689;52.494;13.420;2023-07-20T13:59:10;26.90;20.60
81218;DHT22;70689;52.494;13.420;2023-07-20T14:01:35;27.30;21.00
81218;DHT22;70689;52.494;13.420;2023-07-20T14:04:02;27.50;20.60
81218;DHT22;70689;52.494;13.420;2023-07-20T14:06:30;27.40;20.50
81218;DHT22;70689;52.494;13.420;2023-07-20T14:08:56;26.90;21.20
81218;DHT22;70689;52.494;13.420;2023-07-20T14:11:23;26.50;22.10
81218;DHT22;70689;52.494;13.420;2023-07-20T14:13:50;26.30;22.30
81218;DHT22;70689;52.494;13.420;2023-07-20T14:16:16;26.20;22.60
81218;DHT22;70689;52.494;13.420;2023-07-20T14:18:42;26.00;22.10
81218;DHT22;70689;52.494;13.420;2023-07-20T14:21:08;26.00;23.10
81218;DHT22;70689;52.494;13.420;2023-07-20T14:23:33;26.30;22.10
81218;DHT22;70689;52.494;13.420;2023-07-20T14:25:59;25.90;21.70
81218;DHT22;70689;52.494;13.420;2023-07-20T14:28:25;25.90;22.30
81218;DHT22;70689;52.494;13.420;2023-07-20T14:30:51;25.80;21.50
81218;DHT22;70689;52.494;13.420;2023-07-20T14:33:16;25.70;22.30
81218;DHT22;70689;52.494;13.420;2023-07-20T14:35:42;25.70;21.90
81218;DHT22;70689;52.494;13.420;2023-07-20T14:38:08;25.80;21.90
81218;DHT22;70689;52.494;13.420;2023-07-20T14:40:33;25.80;21.80
81218;DHT22;70689;52.494;13.420;2023-07-20T14:42:59;25.60;21.80
81218;DHT22;70689;52.494;13.420;2023-07-20T14:45:27;25.60;22.30
81218;DHT22;70689;52.494;13.420;2023-07-20T14:47:52;25.60;22.60
81218;DHT22;70689;52.494;13.420;2023-07-20T14:50:20;25.40;22.80
81218;DHT22;70689;52.494;13.420;2023-07-20T14:52:46;25.40;21.80
81218;DHT22;70689;52.494;13.420;2023-07-20T14:55:12;25.40;22.20
81218;DHT22;70689;52.494;13.420;2023-07-20T14:57:37;25.10;21.80
81218;DHT22;70689;52.494;13.420;2023-07-20T15:00:04;25.10;21.90
81218;DHT22;70689;52.494;13.420;2023-07-20T15:02:33;25.20;21.90
81218;DHT22;70689;52.494;13.420;2023-07-20T15:04:59;25.30;22.00
81218;DHT22;70689;52.494;13.420;2023-07-20T15:07:25;25.10;22.20
81218;DHT22;70689;52.494;13.420;2023-07-20T15:09:51;25.20;22.40
81218;DHT22;70689;52.494;13.420;2023-07-20T15:12:17;25.20;22.50
81218;DHT22;70689;52.494;13.420;2023-07-20T15:14:43;25.10;22.40
81218;DHT22;70689;52.494;13.420;2023-07-20T15:17:09;25.10;22.80
81218;DHT22;70689;52.494;13.420;2023-07-20T15:19:35;25.40;22.40
81218;DHT22;70689;52.494;13.420;2023-07-20T15:22:02;25.50;22.80
81218;DHT22;70689;52.494;13.420;2023-07-20T15:24:32;25.50;22.90
81218;DHT22;70689;52.494;13.420;2023-07-20T15:26:58;25.50;21.80
81218;DHT22;70689;52.494;13.420;2023-07-20T15:29:24;25.30;22.30
81218;DHT22;70689;52.494;13.420;2023-07-20T15:31:50;25.20;22.90
81218;DHT22;70689;52.494;13.420;2023-07-20T15:34:15;25.20;22.40